sensor_id;sensor_type;location;lat;lon;timestamp;pressure;altitude;pressure_sealevel;temperature;humidity
41334;BME280;27078;46.428;6.256;2023-10-09T00:00:50;97381.91;;;14.63;100.00
41334;BME280;27078;46.428;6.256;2023-10-09T00:03:17;97386.94;;;14.66;100.00
41334;BME280;27078;46.428;6.256;2023-10-09T00:05:43;97376.72;;;14.71;100.00
41334;BME280;27078;46.428;6.256;2023-10-09T00:08:14;97376.44;;;14.74;100.00
41334;BME280;27078;46.428;6.256;2023-10-09T00:10:56;97384.72;;;14.71;100.00
41334;BME280;27078;46.428;6.256;2023-10-09T00:13:23;97379.78;;;14.66;100.00
41334;BME280;27078;46.428;6.256;2023-10-09T00:15:55;97389.31;;;14.59;100.00
41334;BME280;27078;46.428;6.256;2023-10-09T00:18:25;97387.63;;;14.68;100.00
41334;BME280;27078;46.428;6.256;2023-10-09T00:20:54;97379.81;;;14.76;100.00
41334;BME280;27078;46.428;6.256;2023-10-09T00:23:20;97383.31;;;14.86;100.00
41334;BME280;27078;46.428;6.256;2023-10-09T00:25:51;97383.16;;;14.98;100.00
41334;BME280;27078;46.428;6.256;2023-10-09T00:28:36;97382.03;;;15.00;100.00
41334;BME280;27078;46.428;6.256;2023-10-09T00:31:06;97386.50;;;15.00;100.00
41334;BME280;27078;46.428;6.256;2023-10-09T00:33:40;97384.53;;;15.02;100.00
41334;BME280;27078;46.428;6.256;2023-10-09T00:36:05;97373.50;;;14.97;100.00
41334;BME280;27078;46.428;6.256;2023-10-09T00:38:37;97376.16;;;14.97;100.00
41334;BME280;27078;46.428;6.256;2023-10-09T00:41:10;97369.19;;;14.86;100.00
41334;BME280;27078;46.428;6.256;2023-10-09T00:43:39;97376.28;;;14.85;100.00
41334;BME280;27078;46.428;6.256;2023-10-09T00:46:08;97379.94;;;14.84;100.00
41334;BME280;27078;46.428;6.256;2023-10-09T00:48:47;97366.66;;;14.84;100.00
41334;BME280;27078;46.428;6.256;2023-10-09T00:51:13;97372.94;;;14.83;100.00
41334;BME280;27078;46.428;6.256;2023-10-09T00:53:52;97369.56;;;14.81;100.00
41334;BME280;27078;46.428;6.256;2023-10-09T00:56:19;97363.84;;;14.76;100.00
41334;BME280;27078;46.428;6.256;2023-10-09T00:58:47;97368.16;;;14.77;100.00
41334;BME280;27078;46.428;6.256;2023-10-09T01:01:15;97367.50;;;14.75;100.00
41334;BME280;27078;46.428;6.256;2023-10-09T01:03:41;97371.69;;;14.68;100.00
41334;BME280;27078;46.428;6.256;2023-10-09T01:06:07;97375.88;;;14.71;100.00
41334;BME280;27078;46.428;6.256;2023-10-09T01:08:38;97363.16;;;14.74;100.00
41334;BME280;27078;46.428;6.256;2023-10-09T01:11:10;97367.78;;;14.82;100.00
41334;BME280;27078;46.428;6.256;2023-10-09T01:13:40;97359.63;;;14.83;100.00
41334;BME280;27078;46.428;6.256;2023-10-09T01:16:11;97362.47;;;14.82;100.00
41334;BME280;27078;46.428;6.256;2023-10-09T01:18:41;97359.09;;;14.80;100.00
41334;BME280;27078;46.428;6.256;2023-10-09T01:21:07;97358.66;;;14.84;100.00
41334;BME280;27078;46.428;6.256;2023-10-09T01:23:32;97364.25;;;14.81;100.00
41334;BME280;27078;46.428;6.256;2023-10-09T01:25:57;97364.94;;;14.83;100.00
41334;BME280;27078;46.428;6.256;2023-10-09T01:28:23;97360.06;;;14.79;100.00
41334;BME280;27078;46.428;6.256;2023-10-09T01:30:50;97357.69;;;14.85;100.00
41334;BME280;27078;46.428;6.256;2023-10-09T01:33:16;97363.56;;;14.89;100.00
41334;BME280;27078;46.428;6.256;2023-10-09T01:35:49;97359.38;;;14.86;100.00
41334;BME280;27078;46.428;6.256;2023-10-09T01:38:18;97360.47;;;14.94;100.00
41334;BME280;27078;46.428;6.256;2023-10-09T01:40:48;97355.16;;;14.94;100.00
41334;BME280;27078;46.428;6.256;2023-10-09T01:43:16;97353.75;;;14.90;100.00
41334;BME280;27078;46.428;6.256;2023-10-09T01:45:44;97358.94;;;14.81;100.00
41334;BME280;27078;46.428;6.256;2023-10-09T01:48:12;97359.94;;;14.80;100.00
41334;BME280;27078;46.428;6.256;2023-10-09T01:50:40;97355.31;;;14.82;100.00
41334;BME280;27078;46.428;6.256;2023-10-09T01:53:08;97352.09;;;14.79;100.00
41334;BME280;27078;46.428;6.256;2023-10-09T01:55:33;97349.56;;;14.77;100.00
41334;BME280;27078;46.428;6.256;2023-10-09T01:58:06;97351.94;;;14.71;100.00
41334;BME280;27078;46.428;6.256;2023-10-09T02:00:48;97352.38;;;14.66;100.00
41334;BME280;27078;46.428;6.256;2023-10-09T02:03:15;97347.59;;;14.60;100.00
41334;BME280;27078;46.428;6.256;2023-10-09T02:05:44;97350.13;;;14.61;100.00
41334;BME280;27078;46.428;6.256;2023-10-09T02:08:09;97347.06;;;14.56;100.00
41334;BME280;27078;46.428;6.256;2023-10-09T02:10:38;97348.56;;;14.49;100.00
41334;BME280;27078;46.428;6.256;2023-10-09T02:13:06;97347.03;;;14.46;100.00
41334;BME280;27078;46.428;6.256;2023-10-09T02:15:33;97347.31;;;14.43;100.00
41334;BME280;27078;46.428;6.256;2023-10-09T02:18:19;97342.00;;;14.43;100.00
41334;BME280;27078;46.428;6.256;2023-10-09T02:20:49;97341.84;;;14.45;100.00
41334;BME280;27078;46.428;6.256;2023-10-09T02:23:30;97348.97;;;14.44;100.00
41334;BME280;27078;46.428;6.256;2023-10-09T02:26:04;97348.25;;;14.23;100.00
41334;BME280;27078;46.428;6.256;2023-10-09T02:28:34;97350.72;;;14.05;100.00
41334;BME280;27078;46.428;6.256;2023-10-09T02:31:00;97355.59;;;14.00;100.00
41334;BME280;27078;46.428;6.256;2023-10-09T02:33:35;97355.84;;;13.87;100.00
41334;BME280;27078;46.428;6.256;2023-10-09T02:36:02;97351.34;;;13.78;100.00
41334;BME280;27078;46.428;6.256;2023-10-09T02:38:33;97354.53;;;13.72;100.00
41334;BME280;27078;46.428;6.256;2023-10-09T02:41:03;97351.91;;;13.72;100.00
41334;BME280;27078;46.428;6.256;2023-10-09T02:43:33;97359.22;;;13.58;100.00
41334;BME280;27078;46.428;6.256;2023-10-09T02:46:22;97357.38;;;13.49;100.00
41334;BME280;27078;46.428;6.256;2023-10-09T02:48:56;97356.13;;;13.53;100.00
41334;BME280;27078;46.428;6.256;2023-10-09T02:51:26;97361.03;;;13.58;100.00
41334;BME280;27078;46.428;6.256;2023-10-09T02:53:55;97360.34;;;13.56;100.00
41334;BME280;27078;46.428;6.256;2023-10-09T02:56:22;97365.75;;;13.54;100.00
41334;BME280;27078;46.428;6.256;2023-10-09T02:59:07;97364.34;;;13.50;100.00
41334;BME280;27078;46.428;6.256;2023-10-09T03:01:34;97356.78;;;13.46;100.00
41334;BME280;27078;46.428;6.256;2023-10-09T03:04:08;97363.09;;;13.44;100.00
41334;BME280;27078;46.428;6.256;2023-10-09T03:06:39;97361.84;;;13.49;100.00
41334;BME280;27078;46.428;6.256;2023-10-09T03:09:19;97362.34;;;13.63;100.00
41334;BME280;27078;46.428;6.256;2023-10-09T03:11:56;97360.56;;;13.74;100.00
41334;BME280;27078;46.428;6.256;2023-10-09T03:14:31;97360.56;;;13.83;100.00
41334;BME280;27078;46.428;6.256;2023-10-09T03:16:57;97352.78;;;13.92;100.00
41334;BME280;27078;46.428;6.256;2023-10-09T03:19:27;97356.16;;;13.94;100.00
41334;BME280;27078;46.428;6.256;2023-10-09T03:21:53;97352.25;;;13.98;100.00
41334;BME280;27078;46.428;6.256;2023-10-09T03:24:18;97351.41;;;13.97;100.00
41334;BME280;27078;46.428;6.256;2023-10-09T03:26:45;97351.66;;;13.94;100.00
41334;BME280;27078;46.428;6.256;2023-10-09T03:29:11;97361.88;;;13.89;100.00
41334;BME280;27078;46.428;6.256;2023-10-09T03:31:37;97355.28;;;13.83;100.00
41334;BME280;27078;46.428;6.256;2023-10-09T03:34:03;97356.38;;;13.81;100.00
41334;BME280;27078;46.428;6.256;2023-10-09T03:36:29;97353.31;;;13.85;100.00
41334;BME280;27078;46.428;6.256;2023-10-09T03:38:56;97351.94;;;13.91;100.00
41334;BME280;27078;46.428;6.256;2023-10-09T03:41:23;97352.38;;;13.96;100.00
41334;BME280;27078;46.428;6.256;2023-10-09T03:43:52;97354.78;;;13.99;100.00
41334;BME280;27078;46.428;6.256;2023-10-09T03:46:19;97351.56;;;14.05;100.00
41334;BME280;27078;46.428;6.256;2023-10-09T03:48:52;97348.63;;;14.09;100.00
41334;BME280;27078;46.428;6.256;2023-10-09T03:51:18;97352.41;;;14.06;100.00
41334;BME280;27078;46.428;6.256;2023-10-09T03:53:51;97339.81;;;13.98;100.00
41334;BME280;27078;46.428;6.256;2023-10-09T03:56:19;97353.91;;;13.99;100.00
41334;BME280;27078;46.428;6.256;2023-10-09T03:58:50;97348.88;;;13.96;100.00
41334;BME280;27078;46.428;6.256;2023-10-09T04:01:17;97346.34;;;13.94;100.00
41334;BME280;27078;46.428;6.256;2023-10-09T04:03:59;97358.38;;;13.98;100.00
41334;BME280;27078;46.428;6.256;2023-10-09T04:06:29;97352.66;;;13.93;100.00
41334;BME280;27078;46.428;6.256;2023-10-09T04:09:07;97349.00;;;13.94;100.00
41334;BME280;27078;46.428;6.256;2023-10-09T04:11:54;97349.41;;;13.90;100.00
41334;BME280;27078;46.428;6.256;2023-10-09T04:14:39;97344.69;;;13.93;100.00
41334;BME280;27078;46.428;6.256;2023-10-09T04:17:23;97351.94;;;13.91;100.00
41334;BME280;27078;46.428;6.256;2023-10-09T04:19:48;97347.47;;;13.92;100.00
41334;BME280;27078;46.428;6.256;2023-10-09T04:22:24;97344.94;;;13.90;100.00
41334;BME280;27078;46.428;6.256;2023-10-09T04:24:52;97350.97;;;13.92;100.00
41334;BME280;27078;46.428;6.256;2023-10-09T04:27:18;97348.31;;;13.92;100.00
41334;BME280;27078;46.428;6.256;2023-10-09T04:29:51;97353.59;;;13.82;100.00
41334;BME280;27078;46.428;6.256;2023-10-09T04:32:18;97349.78;;;13.75;100.00
41334;BME280;27078;46.428;6.256;2023-10-09T04:34:44;97349.38;;;13.80;100.00
41334;BME280;27078;46.428;6.256;2023-10-09T04:37:21;97345.22;;;13.87;100.00
41334;BME280;27078;46.428;6.256;2023-10-09T04:40:04;97339.63;;;13.90;100.00
41334;BME280;27078;46.428;6.256;2023-10-09T04:42:38;97332.63;;;13.79;100.00
41334;BME280;27078;46.428;6.256;2023-10-09T04:45:05;97352.16;;;13.69;100.00
41334;BME280;27078;46.428;6.256;2023-10-09T04:47:31;97345.69;;;13.61;100.00
41334;BME280;27078;46.428;6.256;2023-10-09T04:50:03;97343.97;;;13.51;100.00
41334;BME280;27078;46.428;6.256;2023-10-09T04:52:37;97337.91;;;13.39;100.00
41334;BME280;27078;46.428;6.256;2023-10-09T04:55:03;97338.91;;;13.38;100.00
41334;BME280;27078;46.428;6.256;2023-10-09T04:57:44;97340.69;;;13.37;100.00
41334;BME280;27078;46.428;6.256;2023-10-09T05:00:15;97347.56;;;13.40;100.00
41334;BME280;27078;46.428;6.256;2023-10-09T05:02:50;97347.09;;;13.35;100.00
41334;BME280;27078;46.428;6.256;2023-10-09T05:05:22;97354.22;;;13.34;100.00
41334;BME280;27078;46.428;6.256;2023-10-09T05:08:17;97355.34;;;13.32;100.00
41334;BME280;27078;46.428;6.256;2023-10-09T05:10:42;97356.75;;;13.36;100.00
41334;BME280;27078;46.428;6.256;2023-10-09T05:13:27;97348.28;;;13.42;100.00
41334;BME280;27078;46.428;6.256;2023-10-09T05:16:16;97343.81;;;13.42;100.00
41334;BME280;27078;46.428;6.256;2023-10-09T05:18:52;97352.59;;;13.43;100.00
41334;BME280;27078;46.428;6.256;2023-10-09T05:21:25;97356.47;;;13.39;100.00
41334;BME280;27078;46.428;6.256;2023-10-09T05:24:01;97355.34;;;13.32;100.00
41334;BME280;27078;46.428;6.256;2023-10-09T05:26:44;97352.53;;;13.33;100.00
41334;BME280;27078;46.428;6.256;2023-10-09T05:29:13;97352.16;;;13.38;100.00
41334;BME280;27078;46.428;6.256;2023-10-09T05:31:48;97355.19;;;13.33;100.00
41334;BME280;27078;46.428;6.256;2023-10-09T05:34:34;97366.91;;;13.31;100.00
41334;BME280;27078;46.428;6.256;2023-10-09T05:37:04;97360.75;;;13.30;100.00
41334;BME280;27078;46.428;6.256;2023-10-09T05:39:51;97356.53;;;13.28;100.00
41334;BME280;27078;46.428;6.256;2023-10-09T05:42:26;97359.44;;;13.24;100.00
41334;BME280;27078;46.428;6.256;2023-10-09T05:45:09;97365.00;;;13.21;100.00
41334;BME280;27078;46.428;6.256;2023-10-09T05:47:34;97364.00;;;13.34;100.00
41334;BME280;27078;46.428;6.256;2023-10-09T05:49:59;97359.25;;;13.37;100.00
41334;BME280;27078;46.428;6.256;2023-10-09T05:52:34;97358.19;;;13.40;100.00
41334;BME280;27078;46.428;6.256;2023-10-09T05:55:02;97369.22;;;13.45;100.00
41334;BME280;27078;46.428;6.256;2023-10-09T05:57:47;97369.63;;;13.40;100.00
41334;BME280;27078;46.428;6.256;2023-10-09T06:00:24;97374.66;;;13.43;100.00
41334;BME280;27078;46.428;6.256;2023-10-09T06:03:08;97376.59;;;13.41;100.00
41334;BME280;27078;46.428;6.256;2023-10-09T06:05:55;97379.19;;;13.53;100.00
41334;BME280;27078;46.428;6.256;2023-10-09T06:08:22;97381.03;;;13.62;100.00
41334;BME280;27078;46.428;6.256;2023-10-09T06:11:11;97376.44;;;13.64;100.00
41334;BME280;27078;46.428;6.256;2023-10-09T06:13:56;97379.22;;;13.62;100.00
41334;BME280;27078;46.428;6.256;2023-10-09T06:16:40;97383.38;;;13.55;100.00
41334;BME280;27078;46.428;6.256;2023-10-09T06:19:25;97383.91;;;13.49;100.00
41334;BME280;27078;46.428;6.256;2023-10-09T06:21:55;97389.22;;;13.49;100.00
41334;BME280;27078;46.428;6.256;2023-10-09T06:24:40;97384.88;;;13.48;100.00
41334;BME280;27078;46.428;6.256;2023-10-09T06:27:20;97387.34;;;13.40;100.00
41334;BME280;27078;46.428;6.256;2023-10-09T06:29:55;97387.53;;;13.48;100.00
41334;BME280;27078;46.428;6.256;2023-10-09T06:32:40;97387.69;;;13.56;100.00
41334;BME280;27078;46.428;6.256;2023-10-09T06:35:16;97391.97;;;13.69;100.00
41334;BME280;27078;46.428;6.256;2023-10-09T06:37:46;97390.47;;;13.76;100.00
41334;BME280;27078;46.428;6.256;2023-10-09T06:40:31;97396.09;;;13.82;100.00
41334;BME280;27078;46.428;6.256;2023-10-09T06:43:15;97393.28;;;13.84;100.00
41334;BME280;27078;46.428;6.256;2023-10-09T06:45:51;97394.69;;;13.88;100.00
41334;BME280;27078;46.428;6.256;2023-10-09T06:48:22;97390.25;;;13.98;100.00
41334;BME280;27078;46.428;6.256;2023-10-09T06:51:11;97393.50;;;14.12;100.00
41334;BME280;27078;46.428;6.256;2023-10-09T06:54:00;97397.47;;;14.27;100.00
41334;BME280;27078;46.428;6.256;2023-10-09T06:56:29;97386.03;;;14.36;100.00
41334;BME280;27078;46.428;6.256;2023-10-09T06:58:55;97388.97;;;14.43;100.00
41334;BME280;27078;46.428;6.256;2023-10-09T07:01:26;97390.66;;;14.54;100.00
41334;BME280;27078;46.428;6.256;2023-10-09T07:03:52;97398.56;;;14.65;100.00
41334;BME280;27078;46.428;6.256;2023-10-09T07:06:18;97393.78;;;14.69;100.00
41334;BME280;27078;46.428;6.256;2023-10-09T07:11:40;97392.41;;;14.84;100.00
41334;BME280;27078;46.428;6.256;2023-10-09T07:17:04;97397.84;;;15.02;100.00
41334;BME280;27078;46.428;6.256;2023-10-09T07:19:41;97397.84;;;15.12;100.00
41334;BME280;27078;46.428;6.256;2023-10-09T07:22:07;97408.31;;;15.23;100.00
41334;BME280;27078;46.428;6.256;2023-10-09T07:24:46;97415.31;;;15.34;100.00
41334;BME280;27078;46.428;6.256;2023-10-09T07:27:24;97405.50;;;15.44;100.00
41334;BME280;27078;46.428;6.256;2023-10-09T07:30:17;97402.66;;;15.55;100.00
41334;BME280;27078;46.428;6.256;2023-10-09T07:33:06;97407.97;;;15.65;100.00
41334;BME280;27078;46.428;6.256;2023-10-09T07:38:15;97409.03;;;16.19;100.00
41334;BME280;27078;46.428;6.256;2023-10-09T07:40:49;97413.50;;;16.46;100.00
41334;BME280;27078;46.428;6.256;2023-10-09T07:43:41;97408.88;;;16.66;100.00
41334;BME280;27078;46.428;6.256;2023-10-09T07:46:11;97408.63;;;16.87;100.00
41334;BME280;27078;46.428;6.256;2023-10-09T07:48:56;97410.31;;;17.06;100.00
41334;BME280;27078;46.428;6.256;2023-10-09T07:51:23;97415.53;;;17.16;100.00
41334;BME280;27078;46.428;6.256;2023-10-09T07:53:56;97422.31;;;17.28;100.00
41334;BME280;27078;46.428;6.256;2023-10-09T07:56:38;97421.22;;;17.39;100.00
41334;BME280;27078;46.428;6.256;2023-10-09T07:59:06;97424.50;;;17.51;100.00
41334;BME280;27078;46.428;6.256;2023-10-09T08:04:21;97424.59;;;17.67;100.00
41334;BME280;27078;46.428;6.256;2023-10-09T08:07:03;97429.28;;;17.74;100.00
41334;BME280;27078;46.428;6.256;2023-10-09T08:09:32;97431.81;;;17.75;100.00
41334;BME280;27078;46.428;6.256;2023-10-09T08:12:24;97427.84;;;17.79;100.00
41334;BME280;27078;46.428;6.256;2023-10-09T08:15:24;97431.41;;;17.88;100.00
41334;BME280;27078;46.428;6.256;2023-10-09T08:18:13;97432.16;;;17.98;100.00
41334;BME280;27078;46.428;6.256;2023-10-09T08:20:53;97429.38;;;18.08;100.00
41334;BME280;27078;46.428;6.256;2023-10-09T08:23:22;97428.88;;;18.13;100.00
41334;BME280;27078;46.428;6.256;2023-10-09T08:26:03;97427.09;;;18.21;100.00
41334;BME280;27078;46.428;6.256;2023-10-09T08:28:39;97431.63;;;18.29;100.00
41334;BME280;27078;46.428;6.256;2023-10-09T08:31:15;97430.63;;;18.30;100.00
41334;BME280;27078;46.428;6.256;2023-10-09T08:33:48;97435.66;;;18.41;100.00
41334;BME280;27078;46.428;6.256;2023-10-09T08:36:24;97423.88;;;18.52;100.00
41334;BME280;27078;46.428;6.256;2023-10-09T08:38:56;97425.41;;;18.63;100.00
41334;BME280;27078;46.428;6.256;2023-10-09T08:41:23;97430.75;;;18.71;100.00
41334;BME280;27078;46.428;6.256;2023-10-09T08:43:56;97433.63;;;18.78;100.00
41334;BME280;27078;46.428;6.256;2023-10-09T08:46:27;97424.78;;;18.85;100.00
41334;BME280;27078;46.428;6.256;2023-10-09T08:48:54;97429.50;;;18.91;100.00
41334;BME280;27078;46.428;6.256;2023-10-09T08:51:20;97426.81;;;19.00;100.00
41334;BME280;27078;46.428;6.256;2023-10-09T08:53:47;97431.16;;;19.09;100.00
41334;BME280;27078;46.428;6.256;2023-10-09T08:56:13;97423.50;;;19.14;100.00
41334;BME280;27078;46.428;6.256;2023-10-09T08:58:52;97420.31;;;19.19;100.00
41334;BME280;27078;46.428;6.256;2023-10-09T09:01:20;97419.97;;;19.22;100.00
41334;BME280;27078;46.428;6.256;2023-10-09T09:03:48;97425.84;;;19.25;100.00
41334;BME280;27078;46.428;6.256;2023-10-09T09:06:13;97421.97;;;19.36;100.00
41334;BME280;27078;46.428;6.256;2023-10-09T09:08:40;97423.81;;;19.44;100.00
41334;BME280;27078;46.428;6.256;2023-10-09T09:11:11;97421.31;;;19.26;100.00
41334;BME280;27078;46.428;6.256;2023-10-09T09:13:43;97425.84;;;19.42;100.00
41334;BME280;27078;46.428;6.256;2023-10-09T09:16:22;97424.31;;;19.56;100.00
41334;BME280;27078;46.428;6.256;2023-10-09T09:18:56;97427.63;;;19.66;100.00
41334;BME280;27078;46.428;6.256;2023-10-09T09:21:29;97421.97;;;19.69;100.00
41334;BME280;27078;46.428;6.256;2023-10-09T09:23:59;97419.13;;;19.62;100.00
41334;BME280;27078;46.428;6.256;2023-10-09T09:26:37;97422.47;;;19.72;100.00
41334;BME280;27078;46.428;6.256;2023-10-09T09:29:06;97414.91;;;19.84;100.00
41334;BME280;27078;46.428;6.256;2023-10-09T09:31:34;97409.69;;;19.91;100.00
41334;BME280;27078;46.428;6.256;2023-10-09T09:34:08;97401.28;;;20.02;100.00
41334;BME280;27078;46.428;6.256;2023-10-09T09:36:55;97402.31;;;20.01;100.00
41334;BME280;27078;46.428;6.256;2023-10-09T09:39:23;97402.41;;;20.16;100.00
41334;BME280;27078;46.428;6.256;2023-10-09T09:41:57;97405.56;;;20.28;100.00
41334;BME280;27078;46.428;6.256;2023-10-09T09:44:30;97401.19;;;20.27;100.00
41334;BME280;27078;46.428;6.256;2023-10-09T09:47:00;97402.78;;;20.44;100.00
41334;BME280;27078;46.428;6.256;2023-10-09T09:49:27;97403.75;;;20.60;100.00
41334;BME280;27078;46.428;6.256;2023-10-09T09:52:02;97406.03;;;20.71;100.00
41334;BME280;27078;46.428;6.256;2023-10-09T09:54:35;97397.56;;;20.82;100.00
41334;BME280;27078;46.428;6.256;2023-10-09T09:57:02;97389.56;;;20.97;100.00
41334;BME280;27078;46.428;6.256;2023-10-09T09:59:33;97389.34;;;21.07;100.00
41334;BME280;27078;46.428;6.256;2023-10-09T10:02:00;97390.28;;;21.14;100.00
41334;BME280;27078;46.428;6.256;2023-10-09T10:04:38;97392.75;;;21.24;100.00
41334;BME280;27078;46.428;6.256;2023-10-09T10:07:06;97396.00;;;21.34;100.00
41334;BME280;27078;46.428;6.256;2023-10-09T10:09:41;97388.75;;;21.43;100.00
41334;BME280;27078;46.428;6.256;2023-10-09T10:12:11;97384.28;;;21.50;100.00
41334;BME280;27078;46.428;6.256;2023-10-09T10:14:56;97387.72;;;21.59;100.00
41334;BME280;27078;46.428;6.256;2023-10-09T10:17:25;97387.88;;;21.65;100.00
41334;BME280;27078;46.428;6.256;2023-10-09T10:20:06;97384.25;;;21.73;100.00
41334;BME280;27078;46.428;6.256;2023-10-09T10:22:44;97385.63;;;21.84;100.00
41334;BME280;27078;46.428;6.256;2023-10-09T10:25:34;97386.94;;;21.88;100.00
41334;BME280;27078;46.428;6.256;2023-10-09T10:28:19;97383.91;;;21.91;100.00
41334;BME280;27078;46.428;6.256;2023-10-09T10:30:56;97382.69;;;21.93;100.00
41334;BME280;27078;46.428;6.256;2023-10-09T10:33:26;97378.03;;;22.02;100.00
41334;BME280;27078;46.428;6.256;2023-10-09T10:35:52;97372.91;;;22.07;100.00
41334;BME280;27078;46.428;6.256;2023-10-09T10:38:28;97369.88;;;22.10;100.00
41334;BME280;27078;46.428;6.256;2023-10-09T10:43:37;97362.66;;;22.26;100.00
41334;BME280;27078;46.428;6.256;2023-10-09T10:46:13;97356.50;;;22.32;100.00
41334;BME280;27078;46.428;6.256;2023-10-09T10:48:49;97352.59;;;22.34;100.00
41334;BME280;27078;46.428;6.256;2023-10-09T10:51:15;97350.75;;;22.35;100.00
41334;BME280;27078;46.428;6.256;2023-10-09T10:53:51;97349.16;;;22.41;100.00
41334;BME280;27078;46.428;6.256;2023-10-09T10:56:18;97346.53;;;22.47;100.00
41334;BME280;27078;46.428;6.256;2023-10-09T10:58:54;97339.00;;;22.58;100.00
41334;BME280;27078;46.428;6.256;2023-10-09T11:01:32;97342.53;;;22.58;100.00
41334;BME280;27078;46.428;6.256;2023-10-09T11:04:20;97338.25;;;22.64;100.00
41334;BME280;27078;46.428;6.256;2023-10-09T11:06:55;97340.75;;;22.65;100.00
41334;BME280;27078;46.428;6.256;2023-10-09T11:09:26;97329.00;;;22.73;100.00
41334;BME280;27078;46.428;6.256;2023-10-09T11:12:05;97332.47;;;22.67;100.00
41334;BME280;27078;46.428;6.256;2023-10-09T11:14:48;97328.00;;;22.74;100.00
41334;BME280;27078;46.428;6.256;2023-10-09T11:17:34;97332.97;;;22.77;100.00
41334;BME280;27078;46.428;6.256;2023-10-09T11:20:02;97330.03;;;22.72;100.00
41334;BME280;27078;46.428;6.256;2023-10-09T11:22:49;97322.44;;;22.75;100.00
41334;BME280;27078;46.428;6.256;2023-10-09T11:25:33;97322.59;;;22.95;100.00
41334;BME280;27078;46.428;6.256;2023-10-09T11:27:59;97322.41;;;22.97;100.00
41334;BME280;27078;46.428;6.256;2023-10-09T11:30:40;97317.31;;;23.02;100.00
41334;BME280;27078;46.428;6.256;2023-10-09T11:33:06;97315.25;;;23.04;100.00
41334;BME280;27078;46.428;6.256;2023-10-09T11:35:39;97318.00;;;23.11;99.57
41334;BME280;27078;46.428;6.256;2023-10-09T11:38:06;97321.38;;;23.20;100.00
41334;BME280;27078;46.428;6.256;2023-10-09T11:40:46;97315.44;;;23.24;100.00
41334;BME280;27078;46.428;6.256;2023-10-09T11:43:18;97310.22;;;23.23;93.78
41334;BME280;27078;46.428;6.256;2023-10-09T11:45:48;97299.63;;;23.21;92.23
41334;BME280;27078;46.428;6.256;2023-10-09T11:48:20;97301.75;;;23.26;100.00
41334;BME280;27078;46.428;6.256;2023-10-09T11:50:52;97295.19;;;23.35;100.00
41334;BME280;27078;46.428;6.256;2023-10-09T11:53:20;97293.69;;;23.32;100.00
41334;BME280;27078;46.428;6.256;2023-10-09T11:55:49;97294.88;;;23.23;100.00
41334;BME280;27078;46.428;6.256;2023-10-09T11:58:16;97293.22;;;23.22;100.00
41334;BME280;27078;46.428;6.256;2023-10-09T12:00:55;97288.66;;;23.23;100.00
41334;BME280;27078;46.428;6.256;2023-10-09T12:03:31;97283.28;;;23.23;100.00
41334;BME280;27078;46.428;6.256;2023-10-09T12:08:25;97275.56;;;23.20;100.00
41334;BME280;27078;46.428;6.256;2023-10-09T12:10:53;97266.63;;;23.12;100.00
41334;BME280;27078;46.428;6.256;2023-10-09T12:13:20;97275.25;;;23.01;100.00
41334;BME280;27078;46.428;6.256;2023-10-09T12:15:47;97258.50;;;23.06;100.00
41334;BME280;27078;46.428;6.256;2023-10-09T12:18:13;97261.13;;;22.99;100.00
41334;BME280;27078;46.428;6.256;2023-10-09T12:20:43;97255.22;;;23.10;100.00
41334;BME280;27078;46.428;6.256;2023-10-09T12:23:21;97252.34;;;23.12;100.00
41334;BME280;27078;46.428;6.256;2023-10-09T12:25:49;97252.56;;;23.17;100.00
41334;BME280;27078;46.428;6.256;2023-10-09T12:28:14;97241.00;;;23.23;100.00
41334;BME280;27078;46.428;6.256;2023-10-09T12:30:41;97240.84;;;23.31;100.00
41334;BME280;27078;46.428;6.256;2023-10-09T12:33:07;97244.56;;;23.30;100.00
41334;BME280;27078;46.428;6.256;2023-10-09T12:35:37;97239.19;;;23.30;100.00
41334;BME280;27078;46.428;6.256;2023-10-09T12:38:02;97239.38;;;23.29;100.00
41334;BME280;27078;46.428;6.256;2023-10-09T12:40:28;97233.41;;;23.33;100.00
41334;BME280;27078;46.428;6.256;2023-10-09T12:42:57;97234.03;;;23.35;100.00
41334;BME280;27078;46.428;6.256;2023-10-09T12:45:25;97236.88;;;23.27;100.00
41334;BME280;27078;46.428;6.256;2023-10-09T12:47:58;97233.09;;;23.22;99.66
41334;BME280;27078;46.428;6.256;2023-10-09T12:50:28;97230.22;;;23.23;100.00
41334;BME280;27078;46.428;6.256;2023-10-09T12:52:57;97227.03;;;23.13;100.00
41334;BME280;27078;46.428;6.256;2023-10-09T12:55:30;97226.91;;;23.21;100.00
41334;BME280;27078;46.428;6.256;2023-10-09T12:58:01;97216.31;;;23.20;100.00
41334;BME280;27078;46.428;6.256;2023-10-09T13:00:34;97212.41;;;23.22;100.00
41334;BME280;27078;46.428;6.256;2023-10-09T13:03:05;97212.63;;;23.27;100.00
41334;BME280;27078;46.428;6.256;2023-10-09T13:05:43;97215.75;;;23.24;100.00
41334;BME280;27078;46.428;6.256;2023-10-09T13:08:26;97205.75;;;23.18;100.00
41334;BME280;27078;46.428;6.256;2023-10-09T13:11:03;97201.63;;;23.22;100.00
41334;BME280;27078;46.428;6.256;2023-10-09T13:13:42;97197.53;;;23.26;100.00
41334;BME280;27078;46.428;6.256;2023-10-09T13:16:18;97204.75;;;23.26;100.00
41334;BME280;27078;46.428;6.256;2023-10-09T13:18:50;97193.38;;;23.30;100.00
41334;BME280;27078;46.428;6.256;2023-10-09T13:21:20;97186.34;;;23.29;100.00
41334;BME280;27078;46.428;6.256;2023-10-09T13:23:46;97191.31;;;23.32;100.00
41334;BME280;27078;46.428;6.256;2023-10-09T13:26:21;97187.38;;;23.28;100.00
41334;BME280;27078;46.428;6.256;2023-10-09T13:28:53;97186.53;;;23.28;100.00
41334;BME280;27078;46.428;6.256;2023-10-09T13:31:20;97183.00;;;23.27;100.00
41334;BME280;27078;46.428;6.256;2023-10-09T13:33:52;97185.06;;;23.25;100.00
41334;BME280;27078;46.428;6.256;2023-10-09T13:36:24;97184.44;;;23.23;100.00